sensor_id;sensor_type;location;lat;lon;timestamp;pressure;altitude;pressure_sealevel;temperature;humidity
19210;BME280;9738;51.654;14.238;2023-02-18T00:00:18;100539.31;;;7.59;70.09
19210;BME280;9738;51.654;14.238;2023-02-18T00:02:45;100533.28;;;7.57;70.35
19210;BME280;9738;51.654;14.238;2023-02-18T00:05:12;100532.81;;;7.52;70.88
19210;BME280;9738;51.654;14.238;2023-02-18T00:07:39;100524.84;;;7.52;70.66
19210;BME280;9738;51.654;14.238;2023-02-18T00:10:08;100537.41;;;7.50;70.10
19210;BME280;9738;51.654;14.238;2023-02-18T00:12:34;100534.66;;;7.52;70.64
19210;BME280;9738;51.654;14.238;2023-02-18T00:15:00;100546.25;;;7.51;71.63
19210;BME280;9738;51.654;14.238;2023-02-18T00:17:27;100539.50;;;7.47;72.94
19210;BME280;9738;51.654;14.238;2023-02-18T00:19:53;100548.56;;;7.44;73.49
19210;BME280;9738;51.654;14.238;2023-02-18T00:22:20;100540.72;;;7.43;74.20
19210;BME280;9738;51.654;14.238;2023-02-18T00:24:45;100548.22;;;7.38;74.97
19210;BME280;9738;51.654;14.238;2023-02-18T00:27:11;100546.94;;;7.32;75.41
19210;BME280;9738;51.654;14.238;2023-02-18T00:29:37;100543.56;;;7.30;75.98
19210;BME280;9738;51.654;14.238;2023-02-18T00:32:03;100547.47;;;7.26;76.02
19210;BME280;9738;51.654;14.238;2023-02-18T00:34:29;100547.69;;;7.23;75.92
19210;BME280;9738;51.654;14.238;2023-02-18T00:36:55;100549.88;;;7.18;75.96
19210;BME280;9738;51.654;14.238;2023-02-18T00:39:21;100551.69;;;7.17;76.49
19210;BME280;9738;51.654;14.238;2023-02-18T00:41:47;100557.84;;;7.18;76.99
19210;BME280;9738;51.654;14.238;2023-02-18T00:44:13;100561.16;;;7.10;76.57
19210;BME280;9738;51.654;14.238;2023-02-18T00:46:39;100546.88;;;7.11;77.40
19210;BME280;9738;51.654;14.238;2023-02-18T00:49:05;100561.16;;;7.10;78.11
19210;BME280;9738;51.654;14.238;2023-02-18T00:51:33;100549.22;;;7.04;78.69
19210;BME280;9738;51.654;14.238;2023-02-18T00:53:59;100549.72;;;6.98;79.54
19210;BME280;9738;51.654;14.238;2023-02-18T00:56:25;100556.69;;;6.99;80.26
19210;BME280;9738;51.654;14.238;2023-02-18T00:58:51;100560.34;;;6.98;80.03
19210;BME280;9738;51.654;14.238;2023-02-18T01:01:17;100575.28;;;6.99;80.21
19210;BME280;9738;51.654;14.238;2023-02-18T01:03:44;100570.47;;;6.93;81.00
19210;BME280;9738;51.654;14.238;2023-02-18T01:06:11;100567.25;;;6.90;80.68
19210;BME280;9738;51.654;14.238;2023-02-18T01:08:39;100568.22;;;6.89;81.44
19210;BME280;9738;51.654;14.238;2023-02-18T01:11:06;100566.06;;;6.83;80.70
19210;BME280;9738;51.654;14.238;2023-02-18T01:13:33;100580.31;;;6.82;80.41
19210;BME280;9738;51.654;14.238;2023-02-18T01:15:59;100578.84;;;6.77;80.68
19210;BME280;9738;51.654;14.238;2023-02-18T01:18:25;100563.91;;;6.76;80.07
19210;BME280;9738;51.654;14.238;2023-02-18T01:20:52;100563.91;;;6.76;79.64
19210;BME280;9738;51.654;14.238;2023-02-18T01:23:18;100569.22;;;6.76;79.46
19210;BME280;9738;51.654;14.238;2023-02-18T01:25:44;100564.25;;;6.72;79.38
19210;BME280;9738;51.654;14.238;2023-02-18T01:28:12;100567.19;;;6.69;79.14
19210;BME280;9738;51.654;14.238;2023-02-18T01:30:38;100572.50;;;6.69;79.12
19210;BME280;9738;51.654;14.238;2023-02-18T01:33:05;100569.22;;;6.65;79.29
19210;BME280;9738;51.654;14.238;2023-02-18T01:35:32;100577.06;;;6.67;79.82
19210;BME280;9738;51.654;14.238;2023-02-18T01:37:57;100567.53;;;6.64;80.46
19210;BME280;9738;51.654;14.238;2023-02-18T01:40:26;100572.13;;;6.62;81.39
19210;BME280;9738;51.654;14.238;2023-02-18T01:42:53;100564.41;;;6.59;81.88
19210;BME280;9738;51.654;14.238;2023-02-18T01:45:48;100572.00;;;6.53;82.19
19210;BME280;9738;51.654;14.238;2023-02-18T01:48:22;100578.03;;;6.55;82.96
19210;BME280;9738;51.654;14.238;2023-02-18T01:50:53;100574.91;;;6.49;82.31
19210;BME280;9738;51.654;14.238;2023-02-18T01:53:26;100571.28;;;6.50;82.37
19210;BME280;9738;51.654;14.238;2023-02-18T01:55:53;100584.56;;;6.50;82.33
19210;BME280;9738;51.654;14.238;2023-02-18T01:58:20;100567.19;;;6.46;82.29
19210;BME280;9738;51.654;14.238;2023-02-18T02:00:46;100572.75;;;6.43;82.85
19210;BME280;9738;51.654;14.238;2023-02-18T02:03:12;100567.53;;;6.42;82.40
19210;BME280;9738;51.654;14.238;2023-02-18T02:05:38;100559.50;;;6.43;82.44
19210;BME280;9738;51.654;14.238;2023-02-18T02:08:04;100566.84;;;6.40;82.77
19210;BME280;9738;51.654;14.238;2023-02-18T02:11:01;100562.00;;;6.34;82.85
19210;BME280;9738;51.654;14.238;2023-02-18T02:13:43;100572.50;;;6.35;82.85
19210;BME280;9738;51.654;14.238;2023-02-18T02:16:31;100559.00;;;6.27;82.80
19210;BME280;9738;51.654;14.238;2023-02-18T02:25:18;100575.75;;;6.28;82.48
19210;BME280;9738;51.654;14.238;2023-02-18T02:28:07;100576.84;;;6.25;82.45
19210;BME280;9738;51.654;14.238;2023-02-18T02:31:04;100576.09;;;6.23;82.51
19210;BME280;9738;51.654;14.238;2023-02-18T02:37:08;100582.66;;;6.30;81.82
19210;BME280;9738;51.654;14.238;2023-02-18T02:39:47;100578.53;;;6.26;81.60
19210;BME280;9738;51.654;14.238;2023-02-18T02:42:32;100582.88;;;6.27;81.30
19210;BME280;9738;51.654;14.238;2023-02-18T02:45:25;100592.50;;;6.28;80.75
19210;BME280;9738;51.654;14.238;2023-02-18T02:48:06;100593.34;;;6.29;80.61
19210;BME280;9738;51.654;14.238;2023-02-18T02:50:43;100591.44;;;6.31;80.50
19210;BME280;9738;51.654;14.238;2023-02-18T02:53:15;100603.50;;;6.23;79.92
19210;BME280;9738;51.654;14.238;2023-02-18T02:55:42;100598.06;;;6.25;79.70
19210;BME280;9738;51.654;14.238;2023-02-18T02:58:13;100603.38;;;6.25;79.38
19210;BME280;9738;51.654;14.238;2023-02-18T03:00:54;100589.97;;;6.27;78.97
19210;BME280;9738;51.654;14.238;2023-02-18T03:03:47;100592.75;;;6.25;79.30
19210;BME280;9738;51.654;14.238;2023-02-18T03:06:32;100593.81;;;6.22;78.61
19210;BME280;9738;51.654;14.238;2023-02-18T03:09:39;100599.75;;;6.26;78.69
19210;BME280;9738;51.654;14.238;2023-02-18T03:12:17;100589.38;;;6.23;78.15
19210;BME280;9738;51.654;14.238;2023-02-18T03:14:52;100589.38;;;6.23;78.89
19210;BME280;9738;51.654;14.238;2023-02-18T03:17:26;100583.84;;;6.26;78.32
19210;BME280;9738;51.654;14.238;2023-02-18T03:20:17;100588.31;;;6.26;78.48
19210;BME280;9738;51.654;14.238;2023-02-18T03:22:47;100604.22;;;6.26;78.10
19210;BME280;9738;51.654;14.238;2023-02-18T03:25:17;100589.97;;;6.27;78.04
19210;BME280;9738;51.654;14.238;2023-02-18T03:27:49;100594.44;;;6.26;77.44
19210;BME280;9738;51.654;14.238;2023-02-18T03:30:23;100601.44;;;6.27;77.61
19210;BME280;9738;51.654;14.238;2023-02-18T03:32:55;100606.75;;;6.27;77.71
19210;BME280;9738;51.654;14.238;2023-02-18T03:35:23;100606.25;;;6.33;78.19
19210;BME280;9738;51.654;14.238;2023-02-18T03:38:11;100603.75;;;6.32;77.45
19210;BME280;9738;51.654;14.238;2023-02-18T03:40:40;100604.09;;;6.38;77.37
19210;BME280;9738;51.654;14.238;2023-02-18T03:43:06;100609.53;;;6.37;77.87
19210;BME280;9738;51.654;14.238;2023-02-18T03:45:31;100610.25;;;6.39;77.24
19210;BME280;9738;51.654;14.238;2023-02-18T03:47:58;100618.91;;;6.41;77.13
19210;BME280;9738;51.654;14.238;2023-02-18T03:50:24;100610.75;;;6.44;77.42
19210;BME280;9738;51.654;14.238;2023-02-18T03:52:49;100608.66;;;6.47;77.11
19210;BME280;9738;51.654;14.238;2023-02-18T03:55:16;100611.59;;;6.44;76.53
19210;BME280;9738;51.654;14.238;2023-02-18T03:57:41;100607.69;;;6.48;77.07
19210;BME280;9738;51.654;14.238;2023-02-18T04:00:08;100600.34;;;6.52;76.21
19210;BME280;9738;51.654;14.238;2023-02-18T04:02:35;100607.13;;;6.56;76.47
19210;BME280;9738;51.654;14.238;2023-02-18T04:05:01;100608.19;;;6.54;75.87
19210;BME280;9738;51.654;14.238;2023-02-18T04:07:28;100609.88;;;6.55;76.15
19210;BME280;9738;51.654;14.238;2023-02-18T04:09:54;100591.19;;;6.56;75.71
19210;BME280;9738;51.654;14.238;2023-02-18T04:12:20;100607.97;;;6.57;75.68
19210;BME280;9738;51.654;14.238;2023-02-18T04:14:45;100599.88;;;6.58;74.94
19210;BME280;9738;51.654;14.238;2023-02-18T04:17:12;100596.88;;;6.63;74.98
19210;BME280;9738;51.654;14.238;2023-02-18T04:19:37;100604.06;;;6.61;75.37
19210;BME280;9738;51.654;14.238;2023-02-18T04:22:03;100611.09;;;6.62;74.76
19210;BME280;9738;51.654;14.238;2023-02-18T04:24:30;100608.91;;;6.67;75.63
19210;BME280;9738;51.654;14.238;2023-02-18T04:26:55;100604.44;;;6.67;75.08
19210;BME280;9738;51.654;14.238;2023-02-18T04:29:21;100599.13;;;6.67;74.81
19210;BME280;9738;51.654;14.238;2023-02-18T04:31:48;100596.38;;;6.69;74.79
19210;BME280;9738;51.654;14.238;2023-02-18T04:34:13;100590.94;;;6.70;74.00
19210;BME280;9738;51.654;14.238;2023-02-18T04:36:39;100597.94;;;6.71;74.37
19210;BME280;9738;51.654;14.238;2023-02-18T04:39:05;100590.81;;;6.72;74.06
19210;BME280;9738;51.654;14.238;2023-02-18T04:41:31;100602.88;;;6.76;74.30
19210;BME280;9738;51.654;14.238;2023-02-18T04:43:57;100610.72;;;6.77;74.23
19210;BME280;9738;51.654;14.238;2023-02-18T04:46:24;100599.25;;;6.77;74.18
19210;BME280;9738;51.654;14.238;2023-02-18T04:48:50;100599.13;;;6.78;74.33
19210;BME280;9738;51.654;14.238;2023-02-18T04:51:16;100598.03;;;6.81;73.79
19210;BME280;9738;51.654;14.238;2023-02-18T04:53:42;100611.31;;;6.81;73.83
19210;BME280;9738;51.654;14.238;2023-02-18T04:56:08;100603.34;;;6.81;73.60
19210;BME280;9738;51.654;14.238;2023-02-18T04:58:34;100604.06;;;6.83;73.77
19210;BME280;9738;51.654;14.238;2023-02-18T05:01:01;100606.72;;;6.83;73.02
19210;BME280;9738;51.654;14.238;2023-02-18T05:03:29;100602.88;;;6.87;73.65
19210;BME280;9738;51.654;14.238;2023-02-18T05:05:54;100602.59;;;6.90;73.39
19210;BME280;9738;51.654;14.238;2023-02-18T05:08:21;100600.66;;;6.92;72.94
19210;BME280;9738;51.654;14.238;2023-02-18T05:10:47;100595.13;;;6.95;73.62
19210;BME280;9738;51.654;14.238;2023-02-18T05:13:13;100590.88;;;6.93;73.23
19210;BME280;9738;51.654;14.238;2023-02-18T05:15:39;100592.19;;;6.98;73.42
19210;BME280;9738;51.654;14.238;2023-02-18T05:18:05;100596.78;;;6.96;73.02
19210;BME280;9738;51.654;14.238;2023-02-18T05:20:31;100586.19;;;6.96;73.07
19210;BME280;9738;51.654;14.238;2023-02-18T05:22:58;100589.44;;;7.00;73.23
19210;BME280;9738;51.654;14.238;2023-02-18T05:25:23;100586.88;;;6.98;73.41
19210;BME280;9738;51.654;14.238;2023-02-18T05:27:49;100586.88;;;6.98;73.40
19210;BME280;9738;51.654;14.238;2023-02-18T05:30:16;100581.56;;;6.98;73.09
19210;BME280;9738;51.654;14.238;2023-02-18T05:32:41;100580.50;;;7.01;73.43
19210;BME280;9738;51.654;14.238;2023-02-18T05:35:08;100576.88;;;7.02;73.68
19210;BME280;9738;51.654;14.238;2023-02-18T05:37:34;100572.41;;;7.02;73.27
19210;BME280;9738;51.654;14.238;2023-02-18T05:40:00;100585.41;;;7.05;73.47
19210;BME280;9738;51.654;14.238;2023-02-18T05:42:25;100584.47;;;7.07;73.60
19210;BME280;9738;51.654;14.238;2023-02-18T05:44:52;100580.84;;;7.08;73.42
19210;BME280;9738;51.654;14.238;2023-02-18T05:47:18;100580.84;;;7.08;73.32
19210;BME280;9738;51.654;14.238;2023-02-18T05:49:44;100587.22;;;7.05;73.34
19210;BME280;9738;51.654;14.238;2023-02-18T05:52:10;100598.97;;;7.02;73.52
19210;BME280;9738;51.654;14.238;2023-02-18T05:54:37;100584.56;;;7.05;73.23
19210;BME280;9738;51.654;14.238;2023-02-18T05:57:03;100601.25;;;7.07;73.85
19210;BME280;9738;51.654;14.238;2023-02-18T05:59:30;100593.16;;;7.09;73.91
19210;BME280;9738;51.654;14.238;2023-02-18T06:01:56;100585.06;;;7.10;74.05
19210;BME280;9738;51.654;14.238;2023-02-18T06:04:22;100581.41;;;7.11;73.95
19210;BME280;9738;51.654;14.238;2023-02-18T06:06:48;100581.56;;;7.10;73.97
19210;BME280;9738;51.654;14.238;2023-02-18T06:09:14;100589.16;;;7.14;73.93
19210;BME280;9738;51.654;14.238;2023-02-18T06:11:40;100581.06;;;7.16;73.61
19210;BME280;9738;51.654;14.238;2023-02-18T06:14:07;100581.06;;;7.16;73.52
19210;BME280;9738;51.654;14.238;2023-02-18T06:16:32;100585.38;;;7.17;73.53
19210;BME280;9738;51.654;14.238;2023-02-18T06:18:58;100588.75;;;7.19;73.78
19210;BME280;9738;51.654;14.238;2023-02-18T06:21:25;100582.03;;;7.15;73.44
19210;BME280;9738;51.654;14.238;2023-02-18T06:23:51;100580.91;;;7.17;73.29
19210;BME280;9738;51.654;14.238;2023-02-18T06:26:17;100579.00;;;7.19;73.62
19210;BME280;9738;51.654;14.238;2023-02-18T06:28:43;100577.88;;;7.22;73.43
19210;BME280;9738;51.654;14.238;2023-02-18T06:31:09;100571.38;;;7.26;73.59
19210;BME280;9738;51.654;14.238;2023-02-18T06:33:35;100576.06;;;7.22;73.63
19210;BME280;9738;51.654;14.238;2023-02-18T06:36:04;100579.19;;;7.27;73.86
19210;BME280;9738;51.654;14.238;2023-02-18T06:38:33;100572.91;;;7.28;73.39
19210;BME280;9738;51.654;14.238;2023-02-18T06:41:00;100577.38;;;7.28;74.02
19210;BME280;9738;51.654;14.238;2023-02-18T06:43:26;100571.09;;;7.29;73.55
19210;BME280;9738;51.654;14.238;2023-02-18T06:45:52;100577.97;;;7.31;74.36
19210;BME280;9738;51.654;14.238;2023-02-18T06:48:18;100577.13;;;7.31;74.22
19210;BME280;9738;51.654;14.238;2023-02-18T06:50:44;100570.88;;;7.32;74.13
19210;BME280;9738;51.654;14.238;2023-02-18T06:53:11;100577.00;;;7.32;73.94
19210;BME280;9738;51.654;14.238;2023-02-18T06:55:37;100567.09;;;7.35;74.21
19210;BME280;9738;51.654;14.238;2023-02-18T06:58:03;100563.47;;;7.36;74.07
19210;BME280;9738;51.654;14.238;2023-02-18T07:00:29;100569.38;;;7.39;74.62
19210;BME280;9738;51.654;14.238;2023-02-18T07:02:55;100567.56;;;7.40;74.81
19210;BME280;9738;51.654;14.238;2023-02-18T07:05:21;100565.47;;;7.43;75.11
19210;BME280;9738;51.654;14.238;2023-02-18T07:07:47;100569.47;;;7.38;74.57
19210;BME280;9738;51.654;14.238;2023-02-18T07:10:13;100563.78;;;7.42;75.20
19210;BME280;9738;51.654;14.238;2023-02-18T07:12:39;100562.44;;;7.48;75.22
19210;BME280;9738;51.654;14.238;2023-02-18T07:15:05;100564.13;;;7.49;75.31
19210;BME280;9738;51.654;14.238;2023-02-18T07:17:31;100557.13;;;7.48;75.47
19210;BME280;9738;51.654;14.238;2023-02-18T07:19:57;100561.59;;;7.47;75.64
19210;BME280;9738;51.654;14.238;2023-02-18T07:22:23;100563.88;;;7.52;75.71
19210;BME280;9738;51.654;14.238;2023-02-18T07:24:50;100558.56;;;7.52;75.07
19210;BME280;9738;51.654;14.238;2023-02-18T07:27:18;100543.47;;;7.52;74.87
19210;BME280;9738;51.654;14.238;2023-02-18T07:29:44;100545.97;;;7.54;74.84
19210;BME280;9738;51.654;14.238;2023-02-18T07:32:11;100550.44;;;7.53;74.88
19210;BME280;9738;51.654;14.238;2023-02-18T07:34:38;100550.19;;;7.56;75.06
19210;BME280;9738;51.654;14.238;2023-02-18T07:37:04;100545.72;;;7.57;75.33
19210;BME280;9738;51.654;14.238;2023-02-18T07:39:35;100545.28;;;7.52;73.06
19210;BME280;9738;51.654;14.238;2023-02-18T07:42:02;100551.66;;;7.49;72.40
19210;BME280;9738;51.654;14.238;2023-02-18T07:44:28;100544.03;;;7.56;72.77
19210;BME280;9738;51.654;14.238;2023-02-18T07:46:55;100546.59;;;7.57;73.57
19210;BME280;9738;51.654;14.238;2023-02-18T07:49:22;100542.34;;;7.55;75.41
19210;BME280;9738;51.654;14.238;2023-02-18T07:51:48;100536.78;;;7.58;76.38
19210;BME280;9738;51.654;14.238;2023-02-18T07:54:15;100532.41;;;7.57;78.70
19210;BME280;9738;51.654;14.238;2023-02-18T07:56:41;100521.91;;;7.55;80.25
19210;BME280;9738;51.654;14.238;2023-02-18T07:59:08;100520.75;;;7.48;80.35
19210;BME280;9738;51.654;14.238;2023-02-18T08:01:34;100521.28;;;7.42;81.33
19210;BME280;9738;51.654;14.238;2023-02-18T08:04:00;100513.56;;;7.39;83.24
19210;BME280;9738;51.654;14.238;2023-02-18T08:06:34;100517.44;;;7.35;83.80
19210;BME280;9738;51.654;14.238;2023-02-18T08:09:02;100512.84;;;7.37;84.38
19210;BME280;9738;51.654;14.238;2023-02-18T08:11:28;100519.72;;;7.40;85.28
19210;BME280;9738;51.654;14.238;2023-02-18T08:13:53;100512.84;;;7.37;85.50
19210;BME280;9738;51.654;14.238;2023-02-18T08:16:21;100508.38;;;7.38;85.90
19210;BME280;9738;51.654;14.238;2023-02-18T08:18:47;100510.06;;;7.39;85.88
19210;BME280;9738;51.654;14.238;2023-02-18T08:21:15;100512.59;;;7.40;86.93
19210;BME280;9738;51.654;14.238;2023-02-18T08:23:42;100509.66;;;7.43;86.95
19210;BME280;9738;51.654;14.238;2023-02-18T08:26:09;100506.78;;;7.46;88.15
19210;BME280;9738;51.654;14.238;2023-02-18T08:28:34;100495.31;;;7.46;89.54
19210;BME280;9738;51.654;14.238;2023-02-18T08:31:01;100494.47;;;7.45;89.93
19210;BME280;9738;51.654;14.238;2023-02-18T08:33:27;100490.75;;;7.37;90.74
19210;BME280;9738;51.654;14.238;2023-02-18T08:35:53;100487.25;;;7.36;93.03
19210;BME280;9738;51.654;14.238;2023-02-18T08:38:21;100487.91;;;7.28;94.90
19210;BME280;9738;51.654;14.238;2023-02-18T08:40:48;100482.50;;;7.19;96.10
19210;BME280;9738;51.654;14.238;2023-02-18T08:43:15;100478.44;;;7.15;97.70
19210;BME280;9738;51.654;14.238;2023-02-18T08:45:42;100479.66;;;7.11;98.68
19210;BME280;9738;51.654;14.238;2023-02-18T08:48:09;100475.69;;;7.05;99.75
19210;BME280;9738;51.654;14.238;2023-02-18T08:50:36;100473.16;;;7.03;100.00
19210;BME280;9738;51.654;14.238;2023-02-18T08:53:03;100466.41;;;6.99;100.00
19210;BME280;9738;51.654;14.238;2023-02-18T08:55:30;100464.38;;;7.03;100.00
19210;BME280;9738;51.654;14.238;2023-02-18T08:57:55;100463.75;;;6.99;100.00
19210;BME280;9738;51.654;14.238;2023-02-18T09:00:22;100466.34;;;6.90;100.00
19210;BME280;9738;51.654;14.238;2023-02-18T09:02:48;100464.56;;;6.79;100.00
19210;BME280;9738;51.654;14.238;2023-02-18T09:05:13;100451.59;;;6.65;100.00
19210;BME280;9738;51.654;14.238;2023-02-18T09:07:40;100453.56;;;6.63;100.00
19210;BME280;9738;51.654;14.238;2023-02-18T09:10:07;100448.47;;;6.60;100.00
19210;BME280;9738;51.654;14.238;2023-02-18T09:12:33;100453.06;;;6.69;100.00
19210;BME280;9738;51.654;14.238;2023-02-18T09:14:59;100432.25;;;6.74;100.00
19210;BME280;9738;51.654;14.238;2023-02-18T09:17:27;100440.69;;;6.79;100.00
19210;BME280;9738;51.654;14.238;2023-02-18T09:19:52;100435.66;;;6.76;100.00
19210;BME280;9738;51.654;14.238;2023-02-18T09:22:19;100438.66;;;6.71;100.00
19210;BME280;9738;51.654;14.238;2023-02-18T09:24:45;100431.91;;;6.67;100.00
19210;BME280;9738;51.654;14.238;2023-02-18T09:27:11;100427.25;;;6.60;100.00
19210;BME280;9738;51.654;14.238;2023-02-18T09:29:39;100414.88;;;6.49;100.00
19210;BME280;9738;51.654;14.238;2023-02-18T09:32:05;100403.16;;;6.52;100.00
19210;BME280;9738;51.654;14.238;2023-02-18T09:34:32;100393.66;;;6.49;100.00
19210;BME280;9738;51.654;14.238;2023-02-18T09:36:58;100395.41;;;6.60;100.00
19210;BME280;9738;51.654;14.238;2023-02-18T09:39:24;100381.63;;;6.66;100.00
19210;BME280;9738;51.654;14.238;2023-02-18T09:41:58;100377.03;;;6.68;100.00
19210;BME280;9738;51.654;14.238;2023-02-18T09:44:34;100359.22;;;6.59;100.00
19210;BME280;9738;51.654;14.238;2023-02-18T09:47:06;100366.59;;;6.55;100.00
19210;BME280;9738;51.654;14.238;2023-02-18T09:49:37;100374.03;;;6.61;100.00
19210;BME280;9738;51.654;14.238;2023-02-18T09:52:18;100372.44;;;6.70;100.00
19210;BME280;9738;51.654;14.238;2023-02-18T09:54:47;100365.47;;;6.69;100.00
19210;BME280;9738;51.654;14.238;2023-02-18T09:57:25;100356.06;;;6.65;100.00
19210;BME280;9738;51.654;14.238;2023-02-18T10:00:05;100342.66;;;6.66;100.00
19210;BME280;9738;51.654;14.238;2023-02-18T10:02:32;100335.63;;;6.56;100.00
19210;BME280;9738;51.654;14.238;2023-02-18T10:05:01;100330.03;;;6.59;100.00
19210;BME280;9738;51.654;14.238;2023-02-18T10:07:30;100323.56;;;6.52;100.00
19210;BME280;9738;51.654;14.238;2023-02-18T10:10:00;100318.78;;;6.45;100.00
19210;BME280;9738;51.654;14.238;2023-02-18T10:12:29;100301.88;;;6.46;100.00
19210;BME280;9738;51.654;14.238;2023-02-18T10:14:58;100301.41;;;6.41;100.00
19210;BME280;9738;51.654;14.238;2023-02-18T10:17:28;100295.69;;;6.36;100.00
19210;BME280;9738;51.654;14.238;2023-02-18T10:19:56;100290.94;;;6.40;100.00
19210;BME280;9738;51.654;14.238;2023-02-18T10:22:24;100277.94;;;6.37;100.00
19210;BME280;9738;51.654;14.238;2023-02-18T10:24:58;100272.38;;;6.40;100.00
19210;BME280;9738;51.654;14.238;2023-02-18T10:27:32;100267.66;;;6.43;100.00
19210;BME280;9738;51.654;14.238;2023-02-18T10:30:23;100258.25;;;6.39;100.00
19210;BME280;9738;51.654;14.238;2023-02-18T10:32:52;100255.34;;;6.42;100.00
19210;BME280;9738;51.654;14.238;2023-02-18T10:38:08;100234.66;;;6.36;100.00
19210;BME280;9738;51.654;14.238;2023-02-18T10:40:53;100216.66;;;6.40;100.00
19210;BME280;9738;51.654;14.238;2023-02-18T10:46:11;100215.31;;;6.45;100.00
19210;BME280;9738;51.654;14.238;2023-02-18T10:51:21;100196.03;;;6.43;100.00
19210;BME280;9738;51.654;14.238;2023-02-18T10:53:50;100188.47;;;6.39;100.00
19210;BME280;9738;51.654;14.238;2023-02-18T10:56:36;100180.63;;;6.37;100.00
19210;BME280;9738;51.654;14.238;2023-02-18T10:59:11;100174.75;;;6.34;100.00
19210;BME280;9738;51.654;14.238;2023-02-18T11:01:38;100168.34;;;6.36;100.00
19210;BME280;9738;51.654;14.238;2023-02-18T11:04:16;100155.50;;;6.41;100.00
19210;BME280;9738;51.654;14.238;2023-02-18T11:06:45;100142.97;;;6.43;100.00
19210;BME280;9738;51.654;14.238;2023-02-18T11:11:50;100126.53;;;6.49;100.00
19210;BME280;9738;51.654;14.238;2023-02-18T11:14:37;100124.72;;;6.50;100.00
19210;BME280;9738;51.654;14.238;2023-02-18T11:17:09;100109.88;;;6.47;100.00
19210;BME280;9738;51.654;14.238;2023-02-18T11:19:40;100104.56;;;6.47;100.00
19210;BME280;9738;51.654;14.238;2023-02-18T11:22:23;100103.91;;;6.55;100.00
19210;BME280;9738;51.654;14.238;2023-02-18T11:24:54;100096.00;;;6.65;100.00
19210;BME280;9738;51.654;14.238;2023-02-18T11:27:30;100092.94;;;6.69;100.00
19210;BME280;9738;51.654;14.238;2023-02-18T11:30:18;100081.91;;;6.74;100.00
19210;BME280;9738;51.654;14.238;2023-02-18T11:32:48;100076.34;;;6.77;100.00
19210;BME280;9738;51.654;14.238;2023-02-18T11:35:20;100073.41;;;6.80;100.00
19210;BME280;9738;51.654;14.238;2023-02-18T11:37:47;100071.31;;;6.84;100.00
19210;BME280;9738;51.654;14.238;2023-02-18T11:40:23;100058.94;;;6.94;100.00
19210;BME280;9738;51.654;14.238;2023-02-18T11:42:50;100046.03;;;6.99;100.00
19210;BME280;9738;51.654;14.238;2023-02-18T11:45:28;100039.34;;;7.04;100.00
19210;BME280;9738;51.654;14.238;2023-02-18T11:48:07;100025.66;;;7.19;100.00
19210;BME280;9738;51.654;14.238;2023-02-18T11:50:34;100017.28;;;7.33;100.00
19210;BME280;9738;51.654;14.238;2023-02-18T11:53:25;100014.75;;;7.41;100.00
19210;BME280;9738;51.654;14.238;2023-02-18T11:56:04;100001.59;;;7.49;100.00
19210;BME280;9738;51.654;14.238;2023-02-18T11:58:43;99999.34;;;7.54;100.00
19210;BME280;9738;51.654;14.238;2023-02-18T12:01:16;99986.47;;;7.59;100.00
19210;BME280;9738;51.654;14.238;2023-02-18T12:04:13;99978.63;;;7.68;100.00
19210;BME280;9738;51.654;14.238;2023-02-18T12:06:49;99972.28;;;7.78;100.00
19210;BME280;9738;51.654;14.238;2023-02-18T12:10:00;99969.06;;;7.84;100.00
19210;BME280;9738;51.654;14.238;2023-02-18T12:12:34;99957.00;;;7.90;100.00
19210;BME280;9738;51.654;14.238;2023-02-18T12:15:03;99955.00;;;8.02;100.00
19210;BME280;9738;51.654;14.238;2023-02-18T12:18:16;99941.50;;;8.13;100.00
19210;BME280;9738;51.654;14.238;2023-02-18T12:20:59;99935.16;;;8.24;100.00
19210;BME280;9738;51.654;14.238;2023-02-18T12:23:55;99935.66;;;8.37;100.00
19210;BME280;9738;51.654;14.238;2023-02-18T12:26:35;99921.47;;;8.46;100.00
19210;BME280;9738;51.654;14.238;2023-02-18T12:37:33;99909.91;;;8.91;100.00
19210;BME280;9738;51.654;14.238;2023-02-18T12:40:30;99896.72;;;9.07;100.00
19210;BME280;9738;51.654;14.238;2023-02-18T12:43:18;99887.31;;;9.21;100.00
19210;BME280;9738;51.654;14.238;2023-02-18T12:51:14;99883.03;;;9.54;100.00
19210;BME280;9738;51.654;14.238;2023-02-18T12:54:05;99874.44;;;9.68;100.00
19210;BME280;9738;51.654;14.238;2023-02-18T13:05:53;99866.25;;;10.04;100.00
19210;BME280;9738;51.654;14.238;2023-02-18T13:14:12;99863.28;;;10.15;100.00
19210;BME280;9738;51.654;14.238;2023-02-18T13:16:43;99866.78;;;10.16;100.00
19210;BME280;9738;51.654;14.238;2023-02-18T13:21:41;99841.94;;;10.15;100.00
19210;BME280;9738;51.654;14.238;2023-02-18T13:24:12;99853.78;;;10.13;100.00
19210;BME280;9738;51.654;14.238;2023-02-18T13:26:40;99843.59;;;10.16;100.00
19210;BME280;9738;51.654;14.238;2023-02-18T13:29:29;99865.66;;;10.18;100.00
19210;BME280;9738;51.654;14.238;2023-02-18T13:32:21;99864.31;;;10.22;100.00
19210;BME280;9738;51.654;14.238;2023-02-18T13:38:01;99870.94;;;10.10;100.00
19210;BME280;9738;51.654;14.238;2023-02-18T13:40:30;99864.59;;;10.11;100.00
19210;BME280;9738;51.654;14.238;2023-02-18T13:43:29;99865.59;;;10.10;100.00
19210;BME280;9738;51.654;14.238;2023-02-18T13:46:16;99865.47;;;10.12;100.00
19210;BME280;9738;51.654;14.238;2023-02-18T13:51:43;99862.44;;;10.15;100.00
19210;BME280;9738;51.654;14.238;2023-02-18T13:56:44;99855.91;;;10.01;100.00
19210;BME280;9738;51.654;14.238;2023-02-18T13:59:18;99860.25;;;10.02;100.00
19210;BME280;9738;51.654;14.238;2023-02-18T14:01:47;99879.28;;;10.07;100.00
19210;BME280;9738;51.654;14.238;2023-02-18T14:04:33;99880.09;;;10.08;100.00
19210;BME280;9738;51.654;14.238;2023-02-18T14:09:59;99862.91;;;10.02;100.00
19210;BME280;9738;51.654;14.238;2023-02-18T14:12:38;99866.88;;;9.98;100.00
19210;BME280;9738;51.654;14.238;2023-02-18T14:17:48;99865.19;;;9.81;100.00
19210;BME280;9738;51.654;14.238;2023-02-18T14:22:48;99884.97;;;9.78;100.00